createdAt,value
2023-01-17T00:02:28.593Z,17.70
2023-01-17T00:05:15.880Z,17.70
2023-01-17T00:08:02.335Z,19.30
2023-01-17T00:10:30.143Z,20.30
2023-01-17T00:13:03.598Z,19.30
2023-01-17T00:15:32.111Z,17.00
2023-01-17T00:18:00.095Z,17.00
2023-01-17T00:20:49.809Z,17.80
2023-01-17T00:23:42.715Z,18.40
2023-01-17T00:26:18.202Z,18.30
2023-01-17T00:28:46.965Z,17.80
2023-01-17T00:31:16.797Z,18.40
2023-01-17T00:33:44.530Z,20.30
2023-01-17T00:36:13.203Z,19.30
2023-01-17T00:38:41.274Z,18.70
2023-01-17T00:41:13.430Z,18.50
2023-01-17T00:44:00.454Z,16.50
2023-01-17T00:46:47.369Z,17.60
2023-01-17T00:49:34.167Z,20.70
2023-01-17T00:52:20.733Z,20.80
2023-01-17T00:55:07.196Z,21.30
2023-01-17T00:57:55.847Z,17.00
2023-01-17T01:00:42.553Z,15.70
2023-01-17T01:03:30.740Z,11.90
2023-01-17T01:06:17.195Z,10.80
2023-01-17T01:09:04.149Z,11.20
2023-01-17T01:11:50.655Z,14.30
2023-01-17T01:14:37.334Z,16.40
2023-01-17T01:17:23.663Z,14.30
2023-01-17T01:20:10.089Z,16.70
2023-01-17T01:22:56.629Z,10.80
2023-01-17T01:25:42.929Z,13.40
2023-01-17T01:28:33.101Z,10.70
2023-01-17T01:31:22.241Z,12.50
2023-01-17T01:33:53.848Z,11.90
2023-01-17T01:36:21.992Z,12.30
2023-01-17T01:38:50.529Z,11.00
2023-01-17T01:41:18.365Z,11.60
2023-01-17T01:43:54.779Z,9.00
2023-01-17T01:46:49.132Z,6.50
2023-01-17T01:49:24.823Z,7.40
2023-01-17T01:51:59.841Z,4.20
2023-01-17T01:54:44.605Z,4.90
2023-01-17T01:57:18.759Z,6.30
2023-01-17T01:59:56.045Z,4.00
2023-01-17T02:02:23.923Z,4.40
2023-01-17T02:04:52.620Z,5.00
2023-01-17T02:07:33.392Z,3.20
2023-01-17T02:10:03.576Z,4.00
2023-01-17T02:12:31.707Z,2.00
2023-01-17T02:15:00.539Z,3.80
2023-01-17T02:18:29.864Z,3.60
2023-01-17T02:21:23.686Z,3.10
2023-01-17T02:24:35.899Z,3.40
2023-01-17T02:27:08.218Z,3.10
2023-01-17T02:30:16.455Z,2.60
2023-01-17T02:32:54.921Z,2.40
2023-01-17T02:35:47.376Z,2.80
2023-01-17T02:38:20.824Z,2.90
2023-01-17T02:41:02.848Z,3.10
2023-01-17T02:43:32.899Z,2.80
2023-01-17T02:46:00.747Z,2.80
2023-01-17T02:48:32.594Z,3.00
2023-01-17T02:51:36.835Z,2.60
2023-01-17T02:54:48.195Z,2.70
2023-01-17T02:57:56.173Z,2.40
2023-01-17T03:00:50.277Z,3.40
2023-01-17T03:03:34.997Z,3.10
2023-01-17T03:06:36.017Z,2.90
2023-01-17T03:09:05.003Z,2.80
2023-01-17T03:11:34.627Z,2.40
2023-01-17T03:14:02.394Z,2.70
2023-01-17T03:16:33.403Z,2.20
2023-01-17T03:19:01.442Z,2.60
2023-01-17T03:21:29.207Z,2.80
2023-01-17T03:23:56.924Z,2.80
2023-01-17T03:26:24.686Z,3.20
2023-01-17T03:28:52.422Z,3.00
2023-01-17T03:31:20.188Z,2.90
2023-01-17T03:33:48.376Z,2.20
2023-01-17T03:36:16.160Z,1.50
2023-01-17T03:38:43.911Z,2.30
2023-01-17T03:41:11.703Z,1.50
2023-01-17T03:43:39.475Z,2.90
2023-01-17T03:46:22.437Z,3.90
2023-01-17T03:48:50.777Z,3.10
2023-01-17T03:51:19.081Z,3.40
2023-01-17T03:53:47.422Z,2.90
2023-01-17T03:56:15.122Z,3.20
2023-01-17T03:58:45.838Z,4.00
2023-01-17T04:01:13.843Z,3.40
2023-01-17T04:03:41.901Z,3.20
2023-01-17T04:06:09.628Z,3.70
2023-01-17T04:08:37.631Z,3.50
2023-01-17T04:11:05.403Z,4.40
2023-01-17T04:13:33.281Z,3.70
2023-01-17T04:16:00.948Z,4.30
2023-01-17T04:18:28.811Z,3.10
2023-01-17T04:20:56.551Z,3.30
2023-01-17T04:23:24.240Z,3.50
2023-01-17T04:25:51.944Z,3.30
2023-01-17T04:28:19.676Z,2.60
2023-01-17T04:30:47.480Z,3.60
2023-01-17T04:33:15.262Z,3.90
2023-01-17T04:35:42.997Z,4.30
2023-01-17T04:38:10.684Z,3.80
2023-01-17T04:40:38.369Z,4.40
2023-01-17T04:43:06.073Z,3.60
2023-01-17T04:45:33.886Z,2.50
2023-01-17T04:48:06.030Z,2.30
2023-01-17T04:50:34.376Z,4.20
2023-01-17T04:53:02.129Z,4.10
2023-01-17T04:55:32.139Z,4.70
2023-01-17T04:57:59.827Z,5.30
2023-01-17T05:00:27.867Z,3.80
2023-01-17T05:02:57.749Z,6.20
2023-01-17T05:05:25.414Z,4.40
2023-01-17T05:07:55.549Z,2.80
2023-01-17T05:10:24.305Z,2.70
2023-01-17T05:12:57.927Z,4.80
2023-01-17T05:15:26.900Z,4.40
2023-01-17T05:17:55.529Z,3.90
2023-01-17T05:20:25.955Z,4.90
2023-01-17T05:22:56.576Z,7.10
2023-01-17T05:25:28.867Z,7.40
2023-01-17T05:27:59.941Z,4.20
2023-01-17T05:30:30.613Z,4.10
2023-01-17T05:32:59.071Z,3.40
2023-01-17T05:35:30.523Z,3.80
2023-01-17T05:37:58.385Z,3.20
2023-01-17T05:40:30.857Z,2.90
2023-01-17T05:43:01.247Z,2.60
2023-01-17T05:45:31.603Z,3.80
2023-01-17T05:47:59.489Z,3.50
2023-01-17T05:50:35.487Z,4.30
2023-01-17T05:53:11.006Z,4.00
2023-01-17T05:55:40.222Z,3.80
2023-01-17T05:58:21.147Z,3.60
2023-01-17T06:00:49.409Z,3.80
2023-01-17T06:03:17.259Z,4.80
2023-01-17T06:05:45.195Z,4.70
2023-01-17T06:08:13.579Z,2.90
2023-01-17T06:10:41.725Z,3.80
2023-01-17T06:13:15.380Z,3.80
2023-01-17T06:15:43.184Z,4.40
2023-01-17T06:18:14.851Z,3.80
2023-01-17T06:20:43.438Z,4.40
2023-01-17T06:23:14.259Z,3.60
2023-01-17T06:25:45.743Z,2.60
2023-01-17T06:28:17.702Z,3.70
2023-01-17T06:30:46.259Z,3.80
2023-01-17T06:33:14.882Z,2.80
2023-01-17T06:35:53.025Z,3.70
2023-01-17T06:38:21.422Z,3.70
2023-01-17T06:40:49.222Z,2.90
2023-01-17T06:43:17.065Z,3.70
2023-01-17T06:45:44.764Z,4.00
2023-01-17T06:48:12.460Z,3.70
2023-01-17T06:50:40.431Z,4.30
2023-01-17T06:53:08.192Z,4.10
2023-01-17T06:55:40.392Z,3.20
2023-01-17T06:58:09.892Z,3.90
2023-01-17T07:00:42.752Z,4.40
2023-01-17T07:03:26.437Z,5.10
2023-01-17T07:05:54.718Z,5.00
2023-01-17T07:08:22.436Z,6.40
2023-01-17T07:11:00.055Z,5.50
2023-01-17T07:13:29.169Z,4.60
2023-01-17T07:16:01.227Z,9.70
2023-01-17T07:18:29.499Z,6.00
2023-01-17T07:20:57.191Z,3.60
2023-01-17T07:23:25.188Z,6.00
2023-01-17T07:26:02.624Z,5.20
2023-01-17T07:28:30.311Z,4.60
2023-01-17T07:30:58.223Z,6.30
2023-01-17T07:33:25.957Z,3.90
2023-01-17T07:35:53.611Z,3.80
2023-01-17T07:38:21.318Z,5.00
2023-01-17T07:40:49.134Z,9.10
2023-01-17T07:43:17.404Z,3.90
2023-01-17T07:45:51.583Z,4.20
2023-01-17T07:48:24.523Z,4.30
2023-01-17T07:50:57.851Z,4.20
2023-01-17T07:53:28.955Z,3.30
2023-01-17T07:56:03.004Z,3.90
2023-01-17T07:58:35.434Z,3.60
2023-01-17T08:01:09.798Z,4.70
2023-01-17T08:03:41.407Z,4.30
2023-01-17T08:06:25.543Z,3.80
2023-01-17T08:08:56.502Z,4.40
2023-01-17T08:11:25.259Z,5.40
2023-01-17T08:13:59.361Z,3.30
2023-01-17T08:16:28.764Z,4.20
2023-01-17T08:18:57.011Z,3.90
2023-01-17T08:21:24.913Z,3.70
2023-01-17T08:23:52.879Z,4.00
2023-01-17T08:26:22.469Z,4.30
2023-01-17T08:29:02.371Z,4.40
2023-01-17T08:31:33.292Z,3.60
2023-01-17T08:34:01.209Z,4.90
2023-01-17T08:36:31.165Z,4.60
2023-01-17T08:38:59.121Z,4.50
2023-01-17T08:41:27.798Z,4.10
2023-01-17T08:43:55.536Z,3.30
2023-01-17T08:46:23.361Z,3.30
2023-01-17T08:48:59.106Z,3.80
2023-01-17T08:51:28.606Z,3.90
2023-01-17T08:53:56.660Z,3.60
2023-01-17T08:56:26.038Z,4.50
2023-01-17T08:58:54.333Z,5.50
2023-01-17T09:01:22.151Z,5.60
2023-01-17T09:03:51.433Z,4.40
2023-01-17T09:06:19.323Z,4.10
2023-01-17T09:08:47.963Z,4.30
2023-01-17T09:11:17.786Z,4.90
2023-01-17T09:13:45.471Z,3.10
2023-01-17T09:16:15.422Z,4.30
2023-01-17T09:18:43.151Z,4.80
2023-01-17T09:21:17.403Z,4.40
2023-01-17T09:23:46.014Z,4.80
2023-01-17T09:26:26.863Z,4.60
2023-01-17T09:28:56.283Z,4.00
2023-01-17T09:31:27.025Z,4.90
2023-01-17T09:33:57.180Z,3.50
2023-01-17T09:36:31.891Z,3.80
2023-01-17T09:39:04.212Z,3.10
2023-01-17T09:41:37.244Z,4.30
2023-01-17T09:44:27.795Z,4.40
2023-01-17T09:47:18.229Z,4.80
2023-01-17T09:49:48.082Z,4.80
2023-01-17T09:52:21.177Z,5.30
2023-01-17T09:54:50.915Z,7.80
2023-01-17T09:57:43.196Z,6.40
2023-01-17T10:00:26.972Z,3.50
2023-01-17T10:03:19.967Z,5.70
2023-01-17T10:06:07.089Z,5.60
2023-01-17T10:09:08.150Z,3.80
2023-01-17T10:12:02.101Z,4.90
2023-01-17T10:15:07.150Z,5.10
2023-01-17T10:17:56.635Z,6.20
2023-01-17T10:21:03.753Z,5.90
2023-01-17T10:23:46.971Z,4.50
2023-01-17T10:26:22.270Z,5.20
2023-01-17T10:28:54.460Z,3.40
2023-01-17T10:31:24.570Z,4.30
2023-01-17T10:34:03.870Z,5.20
2023-01-17T10:36:38.604Z,4.20
2023-01-17T10:39:23.110Z,3.50
2023-01-17T10:41:59.285Z,5.60
2023-01-17T10:45:02.472Z,5.70
2023-01-17T10:47:37.195Z,5.40
2023-01-17T10:50:05.730Z,5.30
2023-01-17T10:52:53.344Z,5.90
2023-01-17T10:55:40.852Z,5.50
2023-01-17T10:58:13.452Z,5.50
2023-01-17T11:00:47.767Z,4.50
2023-01-17T11:03:20.938Z,5.00
2023-01-17T11:06:18.708Z,4.80
2023-01-17T11:09:10.664Z,4.90
2023-01-17T11:11:50.451Z,6.80
2023-01-17T11:14:26.159Z,5.00
2023-01-17T11:17:04.516Z,4.80
2023-01-17T11:19:36.236Z,4.70
2023-01-17T11:22:07.700Z,4.70
2023-01-17T11:24:41.662Z,5.40
2023-01-17T11:27:30.054Z,4.60
2023-01-17T11:30:17.079Z,3.80
2023-01-17T11:32:53.119Z,3.00
2023-01-17T11:35:34.069Z,3.10
2023-01-17T11:38:22.380Z,3.20
2023-01-17T11:40:53.953Z,5.10
2023-01-17T11:43:27.819Z,5.30
2023-01-17T11:46:20.687Z,3.90
2023-01-17T11:49:00.749Z,3.10
2023-01-17T11:51:43.254Z,3.10
2023-01-17T11:54:38.880Z,2.80
2023-01-17T11:57:20.932Z,3.00
2023-01-17T11:59:51.811Z,2.80
2023-01-17T12:02:43.863Z,3.40
2023-01-17T12:05:47.180Z,2.60
2023-01-17T12:08:43.016Z,3.10
2023-01-17T12:11:17.119Z,3.00
2023-01-17T12:14:23.870Z,3.00
2023-01-17T12:17:11.881Z,3.60
2023-01-17T12:20:05.011Z,4.30
2023-01-17T12:22:57.996Z,4.10
2023-01-17T12:25:55.504Z,3.20
2023-01-17T12:29:04.186Z,3.80
2023-01-17T12:31:43.301Z,4.10
2023-01-17T12:34:38.902Z,5.20
2023-01-17T12:37:23.095Z,4.40
2023-01-17T12:40:30.760Z,2.90
2023-01-17T12:43:16.700Z,3.60
2023-01-17T12:45:48.236Z,4.50
2023-01-17T12:48:22.058Z,4.70
2023-01-17T12:51:24.312Z,4.40
2023-01-17T12:54:15.101Z,3.10
2023-01-17T12:56:51.750Z,2.80
2023-01-17T12:59:54.761Z,3.80
2023-01-17T13:02:43.160Z,3.20
2023-01-17T13:05:23.867Z,3.20
2023-01-17T13:08:34.479Z,3.70
2023-01-17T13:11:23.293Z,4.10
2023-01-17T13:13:53.165Z,3.10
2023-01-17T13:16:50.295Z,3.50
2023-01-17T13:19:36.503Z,3.10
2023-01-17T13:22:17.852Z,4.10
2023-01-17T13:25:32.377Z,4.10
2023-01-17T13:28:27.813Z,4.00
2023-01-17T13:31:27.035Z,4.60
2023-01-17T13:34:25.729Z,3.20
2023-01-17T13:37:08.831Z,3.20
2023-01-17T13:40:29.547Z,3.00
2023-01-17T13:43:01.735Z,3.40
2023-01-17T13:45:36.530Z,3.30
2023-01-17T13:48:14.724Z,3.20
2023-01-17T13:51:04.325Z,3.60
2023-01-17T13:53:34.960Z,3.10
2023-01-17T13:56:28.891Z,4.90
2023-01-17T13:59:05.256Z,3.90
2023-01-17T14:01:34.808Z,5.50
2023-01-17T14:04:10.256Z,5.00
2023-01-17T14:06:49.088Z,4.10
2023-01-17T14:09:37.356Z,4.50
2023-01-17T14:12:10.970Z,4.80
2023-01-17T14:14:41.751Z,5.00
2023-01-17T14:17:28.387Z,4.50
2023-01-17T14:20:02.533Z,2.10
2023-01-17T14:22:36.342Z,2.10
2023-01-17T14:25:10.257Z,2.10
2023-01-17T14:27:53.345Z,3.30
2023-01-17T14:30:27.473Z,2.40
2023-01-17T14:33:01.385Z,3.20
2023-01-17T14:35:39.535Z,2.80
2023-01-17T14:38:22.117Z,2.40
2023-01-17T14:41:08.318Z,1.60
2023-01-17T14:43:44.220Z,1.90
2023-01-17T14:46:37.126Z,2.30
2023-01-17T14:49:22.188Z,1.40
2023-01-17T14:52:02.062Z,1.90
2023-01-17T14:54:29.958Z,2.20
2023-01-17T14:57:26.249Z,2.00
2023-01-17T15:00:19.871Z,1.70
2023-01-17T15:02:50.764Z,2.20
2023-01-17T15:05:24.799Z,3.10
2023-01-17T15:07:58.669Z,4.20
2023-01-17T15:10:33.775Z,4.20
2023-01-17T15:13:10.367Z,4.50
2023-01-17T15:15:40.204Z,3.30
2023-01-17T15:18:14.088Z,4.40
2023-01-17T15:20:55.919Z,4.70
2023-01-17T15:23:33.466Z,6.50
2023-01-17T15:26:03.931Z,11.60
2023-01-17T15:28:35.237Z,11.60
2023-01-17T15:31:15.453Z,11.60
2023-01-17T15:33:57.283Z,11.10
2023-01-17T15:36:33.118Z,10.80
2023-01-17T15:39:06.422Z,12.40
2023-01-17T15:41:40.597Z,22.40
2023-01-17T15:44:24.912Z,15.20
2023-01-17T15:46:53.312Z,12.70
2023-01-17T15:49:26.450Z,15.20
2023-01-17T15:52:14.083Z,9.60
2023-01-17T15:55:00.292Z,12.40
2023-01-17T15:57:38.883Z,13.40
2023-01-17T16:00:20.233Z,14.00
2023-01-17T16:02:58.819Z,17.40
2023-01-17T16:05:31.105Z,16.50
2023-01-17T16:08:01.674Z,19.30
2023-01-17T16:10:33.456Z,18.50
2023-01-17T16:13:01.681Z,23.10
2023-01-17T16:15:30.796Z,23.80
2023-01-17T16:18:06.745Z,26.20
2023-01-17T16:20:47.377Z,29.20
2023-01-17T16:23:20.226Z,29.10
2023-01-17T16:25:48.607Z,27.90
2023-01-17T16:28:16.618Z,28.70
2023-01-17T16:30:45.160Z,23.10
2023-01-17T16:33:13.629Z,28.00
2023-01-17T16:35:43.075Z,28.10
2023-01-17T16:38:15.500Z,27.10
2023-01-17T16:40:45.893Z,27.60
2023-01-17T16:43:17.759Z,28.60
2023-01-17T16:45:52.690Z,34.10
2023-01-17T16:48:21.356Z,40.60
2023-01-17T16:50:53.202Z,32.80
2023-01-17T16:53:28.180Z,35.90
2023-01-17T16:55:59.312Z,32.10
2023-01-17T16:58:27.059Z,25.40
2023-01-17T17:00:56.620Z,25.80
2023-01-17T17:03:24.311Z,24.50
2023-01-17T17:06:00.855Z,25.90
2023-01-17T17:08:29.609Z,25.30
2023-01-17T17:11:08.641Z,27.00
2023-01-17T17:13:36.374Z,28.30
2023-01-17T17:16:14.981Z,34.30
2023-01-17T17:18:45.393Z,34.30
2023-01-17T17:21:14.959Z,36.30
2023-01-17T17:23:42.951Z,41.10
2023-01-17T17:26:10.643Z,40.50
2023-01-17T17:28:38.310Z,37.20
2023-01-17T17:31:11.128Z,28.00
2023-01-17T17:33:38.941Z,25.20
2023-01-17T17:36:10.225Z,26.70
2023-01-17T17:38:50.771Z,21.70
2023-01-17T17:41:41.488Z,24.20
2023-01-17T17:44:09.433Z,20.90
2023-01-17T17:46:38.002Z,19.10
2023-01-17T17:49:08.792Z,25.10
2023-01-17T17:51:40.188Z,26.00
2023-01-17T17:54:11.548Z,26.90
2023-01-17T17:56:40.329Z,30.70
2023-01-17T17:59:09.424Z,33.00
2023-01-17T18:01:41.151Z,31.70
2023-01-17T18:04:09.604Z,31.40
2023-01-17T18:06:38.616Z,30.20
2023-01-17T18:09:09.168Z,31.50
2023-01-17T18:11:40.855Z,30.50
2023-01-17T18:14:14.839Z,30.30
2023-01-17T18:16:44.945Z,29.70
2023-01-17T18:19:20.320Z,35.10
2023-01-17T18:21:50.422Z,33.30
2023-01-17T18:24:22.277Z,28.70
2023-01-17T18:26:57.197Z,28.50
2023-01-17T18:29:27.205Z,24.40
2023-01-17T18:31:55.773Z,23.70
2023-01-17T18:34:29.249Z,23.30
2023-01-17T18:36:57.578Z,19.70
2023-01-17T18:39:29.251Z,19.00
2023-01-17T18:41:58.273Z,18.40
2023-01-17T18:44:27.434Z,15.30
2023-01-17T18:46:59.521Z,14.40
2023-01-17T18:49:27.467Z,16.70
2023-01-17T18:51:55.195Z,14.90
2023-01-17T18:54:22.833Z,18.00
2023-01-17T18:56:51.278Z,18.20
2023-01-17T18:59:19.609Z,20.40
2023-01-17T19:01:47.619Z,20.30
2023-01-17T19:04:17.373Z,20.10
2023-01-17T19:06:48.042Z,20.00
2023-01-17T19:09:17.357Z,17.40
2023-01-17T19:11:47.516Z,18.10
2023-01-17T19:14:17.724Z,14.00
2023-01-17T19:16:45.503Z,15.70
2023-01-17T19:19:15.940Z,15.40
2023-01-17T19:21:44.241Z,15.50
2023-01-17T19:24:13.293Z,17.40
2023-01-17T19:26:43.032Z,15.90
2023-01-17T19:29:12.310Z,15.20
2023-01-17T19:31:42.948Z,20.90
2023-01-17T19:34:13.981Z,20.30
2023-01-17T19:36:42.271Z,22.50
2023-01-17T19:39:10.002Z,24.10
2023-01-17T19:41:44.498Z,20.60
2023-01-17T19:44:14.746Z,22.70
2023-01-17T19:46:43.843Z,21.50
2023-01-17T19:49:11.929Z,21.20
2023-01-17T19:51:39.836Z,20.40
2023-01-17T19:54:08.378Z,19.00
2023-01-17T19:56:36.748Z,19.20
2023-01-17T19:59:04.524Z,18.40
2023-01-17T20:01:34.638Z,17.70
2023-01-17T20:04:03.715Z,20.10
2023-01-17T20:06:35.731Z,19.40
2023-01-17T20:09:06.238Z,21.50
2023-01-17T20:11:34.446Z,19.40
2023-01-17T20:14:05.613Z,19.00
2023-01-17T20:16:36.130Z,19.90
2023-01-17T20:19:04.336Z,19.30
2023-01-17T20:21:32.812Z,19.40
2023-01-17T20:24:04.626Z,19.30
2023-01-17T20:26:36.393Z,18.50
2023-01-17T20:29:13.271Z,34.80
2023-01-17T20:31:42.934Z,27.40
2023-01-17T20:34:14.116Z,39.30
2023-01-17T20:36:42.414Z,36.30
2023-01-17T20:39:13.708Z,42.80
2023-01-17T20:41:43.825Z,37.00
2023-01-17T20:44:15.334Z,37.10
2023-01-17T20:46:44.513Z,40.80
2023-01-17T20:49:19.103Z,39.00
2023-01-17T20:51:48.037Z,31.80
2023-01-17T20:54:19.094Z,35.50
2023-01-17T20:56:47.957Z,30.90
2023-01-17T20:59:22.442Z,31.30
2023-01-17T21:01:51.860Z,24.70
2023-01-17T21:04:25.632Z,25.30
2023-01-17T21:06:53.474Z,25.40
2023-01-17T21:09:22.032Z,34.30
2023-01-17T21:11:50.525Z,36.80
2023-01-17T21:14:18.284Z,39.40
2023-01-17T21:16:46.426Z,40.10
2023-01-17T21:19:15.545Z,37.70
2023-01-17T21:21:43.478Z,38.90
2023-01-17T21:24:18.442Z,40.30
2023-01-17T21:26:47.217Z,39.10
2023-01-17T21:29:16.222Z,37.80
2023-01-17T21:31:45.255Z,36.20
2023-01-17T21:34:13.856Z,38.80
2023-01-17T21:36:43.442Z,40.30
2023-01-17T21:39:21.682Z,38.50
2023-01-17T21:41:50.831Z,39.20
2023-01-17T21:44:22.892Z,35.60
2023-01-17T21:46:54.278Z,38.00
2023-01-17T21:49:24.111Z,36.30
2023-01-17T21:51:54.623Z,31.90
2023-01-17T21:54:44.497Z,24.40
2023-01-17T21:57:34.199Z,26.70
2023-01-17T22:00:04.520Z,24.80
2023-01-17T22:02:32.468Z,23.40
2023-01-17T22:05:00.182Z,20.10
2023-01-17T22:07:29.191Z,20.80
2023-01-17T22:09:56.990Z,22.70
2023-01-17T22:12:25.378Z,19.40
2023-01-17T22:14:53.595Z,20.10
2023-01-17T22:17:21.352Z,18.90
2023-01-17T22:19:49.188Z,18.30
2023-01-17T22:22:17.062Z,20.30
2023-01-17T22:24:44.770Z,19.30
2023-01-17T22:27:13.714Z,20.50
2023-01-17T22:29:41.411Z,19.40
2023-01-17T22:32:09.136Z,17.30
2023-01-17T22:34:36.920Z,20.30
2023-01-17T22:37:10.082Z,16.40
2023-01-17T22:39:38.796Z,21.60
2023-01-17T22:42:07.375Z,22.70
2023-01-17T22:44:35.075Z,26.20
2023-01-17T22:47:03.434Z,18.70
2023-01-17T22:49:31.223Z,18.90
2023-01-17T22:51:58.971Z,21.60
2023-01-17T22:54:26.624Z,20.20
2023-01-17T22:56:54.300Z,20.10
2023-01-17T22:59:22.124Z,20.50
2023-01-17T23:01:49.888Z,21.20
2023-01-17T23:04:17.677Z,20.10
2023-01-17T23:06:45.533Z,17.10
2023-01-17T23:09:17.205Z,18.40
2023-01-17T23:11:50.926Z,17.20
2023-01-17T23:14:21.757Z,16.30
2023-01-17T23:17:20.182Z,18.70
2023-01-17T23:19:51.987Z,18.70
2023-01-17T23:22:28.090Z,19.10
2023-01-17T23:25:01.336Z,18.90
2023-01-17T23:27:55.541Z,20.70
2023-01-17T23:30:35.525Z,21.10
2023-01-17T23:33:16.489Z,19.10
2023-01-17T23:35:46.714Z,19.60
2023-01-17T23:38:26.677Z,20.00
2023-01-17T23:41:23.374Z,18.80
2023-01-17T23:43:57.157Z,19.20
2023-01-17T23:46:26.721Z,16.80
2023-01-17T23:48:55.331Z,14.30
2023-01-17T23:51:23.263Z,20.90
2023-01-17T23:53:55.305Z,21.20
2023-01-17T23:56:24.758Z,20.20
2023-01-17T23:58:53.017Z,19.00
